sensor_id;sensor_type;location;lat;lon;timestamp;P1;durP1;ratioP1;P2;durP2;ratioP2
58294;SDS011;45705;55.592;37.460;2023-04-23T00:01:25;83.13;;;30.63;;
58294;SDS011;45705;55.592;37.460;2023-04-23T00:03:55;89.72;;;31.13;;
58294;SDS011;45705;55.592;37.460;2023-04-23T00:06:22;88.63;;;31.80;;
58294;SDS011;45705;55.592;37.460;2023-04-23T00:08:52;84.32;;;34.22;;
58294;SDS011;45705;55.592;37.460;2023-04-23T00:11:19;96.03;;;31.63;;
58294;SDS011;45705;55.592;37.460;2023-04-23T00:13:45;79.28;;;28.83;;
58294;SDS011;45705;55.592;37.460;2023-04-23T00:16:13;94.25;;;32.72;;
58294;SDS011;45705;55.592;37.460;2023-04-23T00:18:40;86.50;;;30.48;;
58294;SDS011;45705;55.592;37.460;2023-04-23T00:21:05;88.63;;;29.02;;
58294;SDS011;45705;55.592;37.460;2023-04-23T00:23:33;80.10;;;28.90;;
58294;SDS011;45705;55.592;37.460;2023-04-23T00:25:59;79.07;;;28.58;;
58294;SDS011;45705;55.592;37.460;2023-04-23T00:28:25;66.88;;;25.95;;
58294;SDS011;45705;55.592;37.460;2023-04-23T00:30:50;80.80;;;28.52;;
58294;SDS011;45705;55.592;37.460;2023-04-23T00:33:16;81.00;;;28.35;;
58294;SDS011;45705;55.592;37.460;2023-04-23T00:35:42;91.03;;;32.72;;
58294;SDS011;45705;55.592;37.460;2023-04-23T00:38:07;85.70;;;40.13;;
58294;SDS011;45705;55.592;37.460;2023-04-23T00:40:33;82.53;;;36.90;;
58294;SDS011;45705;55.592;37.460;2023-04-23T00:42:59;93.47;;;36.72;;
58294;SDS011;45705;55.592;37.460;2023-04-23T00:45:25;76.78;;;33.00;;
58294;SDS011;45705;55.592;37.460;2023-04-23T00:47:52;96.72;;;33.78;;
58294;SDS011;45705;55.592;37.460;2023-04-23T00:50:17;74.18;;;32.42;;
58294;SDS011;45705;55.592;37.460;2023-04-23T00:52:44;85.45;;;37.33;;
58294;SDS011;45705;55.592;37.460;2023-04-23T00:55:10;85.47;;;35.70;;
58294;SDS011;45705;55.592;37.460;2023-04-23T00:57:36;78.38;;;34.55;;
58294;SDS011;45705;55.592;37.460;2023-04-23T01:00:03;76.93;;;30.02;;
58294;SDS011;45705;55.592;37.460;2023-04-23T01:02:31;67.28;;;29.83;;
58294;SDS011;45705;55.592;37.460;2023-04-23T01:04:58;60.10;;;27.25;;
58294;SDS011;45705;55.592;37.460;2023-04-23T01:07:26;59.17;;;28.70;;
58294;SDS011;45705;55.592;37.460;2023-04-23T01:09:52;69.07;;;29.73;;
58294;SDS011;45705;55.592;37.460;2023-04-23T01:12:18;66.22;;;29.75;;
58294;SDS011;45705;55.592;37.460;2023-04-23T01:14:43;69.00;;;31.48;;
58294;SDS011;45705;55.592;37.460;2023-04-23T01:17:10;57.60;;;28.38;;
58294;SDS011;45705;55.592;37.460;2023-04-23T01:19:36;77.30;;;29.30;;
58294;SDS011;45705;55.592;37.460;2023-04-23T01:22:07;62.40;;;27.33;;
58294;SDS011;45705;55.592;37.460;2023-04-23T01:24:34;61.38;;;27.08;;
58294;SDS011;45705;55.592;37.460;2023-04-23T01:27:01;78.22;;;28.80;;
58294;SDS011;45705;55.592;37.460;2023-04-23T01:29:28;87.10;;;31.10;;
58294;SDS011;45705;55.592;37.460;2023-04-23T01:31:54;60.10;;;27.35;;
58294;SDS011;45705;55.592;37.460;2023-04-23T01:34:21;64.47;;;26.58;;
58294;SDS011;45705;55.592;37.460;2023-04-23T01:36:47;64.70;;;26.50;;
58294;SDS011;45705;55.592;37.460;2023-04-23T01:39:14;57.60;;;26.23;;
58294;SDS011;45705;55.592;37.460;2023-04-23T01:41:40;51.63;;;24.83;;
58294;SDS011;45705;55.592;37.460;2023-04-23T01:44:05;55.63;;;25.65;;
58294;SDS011;45705;55.592;37.460;2023-04-23T01:46:31;53.45;;;24.65;;
58294;SDS011;45705;55.592;37.460;2023-04-23T01:48:57;64.15;;;26.73;;
58294;SDS011;45705;55.592;37.460;2023-04-23T01:51:24;54.58;;;27.10;;
58294;SDS011;45705;55.592;37.460;2023-04-23T01:53:51;57.85;;;24.95;;
58294;SDS011;45705;55.592;37.460;2023-04-23T01:56:18;52.92;;;24.67;;
58294;SDS011;45705;55.592;37.460;2023-04-23T01:58:47;64.97;;;28.17;;
58294;SDS011;45705;55.592;37.460;2023-04-23T02:01:13;50.80;;;23.95;;
58294;SDS011;45705;55.592;37.460;2023-04-23T02:03:38;57.08;;;25.52;;
58294;SDS011;45705;55.592;37.460;2023-04-23T02:06:04;49.15;;;23.60;;
58294;SDS011;45705;55.592;37.460;2023-04-23T02:08:30;63.72;;;28.85;;
58294;SDS011;45705;55.592;37.460;2023-04-23T02:10:56;53.67;;;25.63;;
58294;SDS011;45705;55.592;37.460;2023-04-23T02:13:22;61.42;;;29.63;;
58294;SDS011;45705;55.592;37.460;2023-04-23T02:15:47;69.20;;;29.35;;
58294;SDS011;45705;55.592;37.460;2023-04-23T02:18:13;95.90;;;40.85;;
58294;SDS011;45705;55.592;37.460;2023-04-23T02:20:39;66.72;;;31.15;;
58294;SDS011;45705;55.592;37.460;2023-04-23T02:23:06;104.65;;;52.53;;
58294;SDS011;45705;55.592;37.460;2023-04-23T02:25:32;88.93;;;41.80;;
58294;SDS011;45705;55.592;37.460;2023-04-23T02:27:59;81.60;;;37.92;;
58294;SDS011;45705;55.592;37.460;2023-04-23T02:30:29;50.60;;;21.45;;
58294;SDS011;45705;55.592;37.460;2023-04-23T02:32:55;48.20;;;20.02;;
58294;SDS011;45705;55.592;37.460;2023-04-23T02:35:20;52.10;;;22.23;;
58294;SDS011;45705;55.592;37.460;2023-04-23T02:37:47;47.38;;;24.80;;
58294;SDS011;45705;55.592;37.460;2023-04-23T02:40:13;54.63;;;22.35;;
58294;SDS011;45705;55.592;37.460;2023-04-23T02:42:38;52.25;;;21.80;;
58294;SDS011;45705;55.592;37.460;2023-04-23T02:45:04;51.40;;;21.00;;
58294;SDS011;45705;55.592;37.460;2023-04-23T02:47:31;53.40;;;22.92;;
58294;SDS011;45705;55.592;37.460;2023-04-23T02:49:56;38.05;;;19.80;;
58294;SDS011;45705;55.592;37.460;2023-04-23T02:52:23;43.80;;;19.95;;
58294;SDS011;45705;55.592;37.460;2023-04-23T02:54:49;48.25;;;21.05;;
58294;SDS011;45705;55.592;37.460;2023-04-23T02:57:15;42.42;;;20.85;;
58294;SDS011;45705;55.592;37.460;2023-04-23T02:59:41;41.75;;;20.45;;
58294;SDS011;45705;55.592;37.460;2023-04-23T03:02:07;40.80;;;21.05;;
58294;SDS011;45705;55.592;37.460;2023-04-23T03:04:33;37.60;;;21.30;;
58294;SDS011;45705;55.592;37.460;2023-04-23T03:06:59;39.30;;;20.63;;
58294;SDS011;45705;55.592;37.460;2023-04-23T03:09:24;37.90;;;18.20;;
58294;SDS011;45705;55.592;37.460;2023-04-23T03:11:50;34.53;;;16.70;;
58294;SDS011;45705;55.592;37.460;2023-04-23T03:14:16;34.20;;;17.23;;
58294;SDS011;45705;55.592;37.460;2023-04-23T03:16:41;30.13;;;14.95;;
58294;SDS011;45705;55.592;37.460;2023-04-23T03:19:07;31.45;;;15.00;;
58294;SDS011;45705;55.592;37.460;2023-04-23T03:21:33;31.58;;;14.65;;
58294;SDS011;45705;55.592;37.460;2023-04-23T03:23:59;25.05;;;15.00;;
58294;SDS011;45705;55.592;37.460;2023-04-23T03:26:25;35.67;;;17.17;;
58294;SDS011;45705;55.592;37.460;2023-04-23T03:28:51;39.05;;;18.55;;
58294;SDS011;45705;55.592;37.460;2023-04-23T03:31:17;32.42;;;16.08;;
58294;SDS011;45705;55.592;37.460;2023-04-23T03:33:43;30.58;;;15.07;;
58294;SDS011;45705;55.592;37.460;2023-04-23T03:36:09;27.83;;;14.52;;
58294;SDS011;45705;55.592;37.460;2023-04-23T03:38:35;25.40;;;14.60;;
58294;SDS011;45705;55.592;37.460;2023-04-23T03:41:03;32.28;;;15.85;;
58294;SDS011;45705;55.592;37.460;2023-04-23T03:43:29;40.40;;;16.35;;
58294;SDS011;45705;55.592;37.460;2023-04-23T03:46:01;29.30;;;14.73;;
58294;SDS011;45705;55.592;37.460;2023-04-23T03:48:28;33.35;;;16.15;;
58294;SDS011;45705;55.592;37.460;2023-04-23T03:50:54;28.80;;;13.85;;
58294;SDS011;45705;55.592;37.460;2023-04-23T03:53:40;25.10;;;13.27;;
58294;SDS011;45705;55.592;37.460;2023-04-23T03:56:25;25.95;;;13.07;;
58294;SDS011;45705;55.592;37.460;2023-04-23T03:59:03;23.13;;;12.93;;
58294;SDS011;45705;55.592;37.460;2023-04-23T04:01:29;22.38;;;11.93;;
58294;SDS011;45705;55.592;37.460;2023-04-23T04:03:57;30.10;;;15.55;;
58294;SDS011;45705;55.592;37.460;2023-04-23T04:06:23;24.52;;;14.85;;
58294;SDS011;45705;55.592;37.460;2023-04-23T04:08:49;26.13;;;14.30;;
58294;SDS011;45705;55.592;37.460;2023-04-23T04:11:15;31.95;;;14.80;;
58294;SDS011;45705;55.592;37.460;2023-04-23T04:13:41;26.58;;;14.15;;
58294;SDS011;45705;55.592;37.460;2023-04-23T04:16:06;18.80;;;11.63;;
58294;SDS011;45705;55.592;37.460;2023-04-23T04:18:32;19.35;;;10.30;;
58294;SDS011;45705;55.592;37.460;2023-04-23T04:20:58;22.83;;;8.50;;
58294;SDS011;45705;55.592;37.460;2023-04-23T04:23:23;14.98;;;9.50;;
58294;SDS011;45705;55.592;37.460;2023-04-23T04:25:49;15.80;;;8.38;;
58294;SDS011;45705;55.592;37.460;2023-04-23T04:28:15;16.40;;;8.55;;
58294;SDS011;45705;55.592;37.460;2023-04-23T04:30:41;15.45;;;7.85;;
58294;SDS011;45705;55.592;37.460;2023-04-23T04:33:08;11.73;;;7.13;;
58294;SDS011;45705;55.592;37.460;2023-04-23T04:35:34;13.35;;;6.00;;
58294;SDS011;45705;55.592;37.460;2023-04-23T04:37:59;8.80;;;5.00;;
58294;SDS011;45705;55.592;37.460;2023-04-23T04:40:25;9.13;;;4.57;;
58294;SDS011;45705;55.592;37.460;2023-04-23T04:42:52;16.45;;;4.78;;
58294;SDS011;45705;55.592;37.460;2023-04-23T04:45:19;7.30;;;5.38;;
58294;SDS011;45705;55.592;37.460;2023-04-23T04:47:45;9.98;;;5.32;;
58294;SDS011;45705;55.592;37.460;2023-04-23T04:50:10;9.43;;;5.72;;
58294;SDS011;45705;55.592;37.460;2023-04-23T04:52:36;12.20;;;5.95;;
58294;SDS011;45705;55.592;37.460;2023-04-23T04:55:02;14.70;;;6.20;;
58294;SDS011;45705;55.592;37.460;2023-04-23T04:57:29;11.32;;;6.28;;
58294;SDS011;45705;55.592;37.460;2023-04-23T04:59:54;8.85;;;6.10;;
58294;SDS011;45705;55.592;37.460;2023-04-23T05:02:21;18.88;;;7.20;;
58294;SDS011;45705;55.592;37.460;2023-04-23T05:04:47;17.55;;;8.32;;
58294;SDS011;45705;55.592;37.460;2023-04-23T05:07:13;12.60;;;7.35;;
58294;SDS011;45705;55.592;37.460;2023-04-23T05:09:39;17.63;;;7.97;;
58294;SDS011;45705;55.592;37.460;2023-04-23T05:12:05;10.60;;;7.05;;
58294;SDS011;45705;55.592;37.460;2023-04-23T05:14:32;14.18;;;7.28;;
58294;SDS011;45705;55.592;37.460;2023-04-23T05:16:57;11.93;;;6.60;;
58294;SDS011;45705;55.592;37.460;2023-04-23T05:19:23;14.15;;;7.28;;
58294;SDS011;45705;55.592;37.460;2023-04-23T05:21:49;16.58;;;7.18;;
58294;SDS011;45705;55.592;37.460;2023-04-23T05:24:14;16.23;;;7.45;;
58294;SDS011;45705;55.592;37.460;2023-04-23T05:26:40;14.75;;;7.93;;
58294;SDS011;45705;55.592;37.460;2023-04-23T05:29:06;14.05;;;8.20;;
58294;SDS011;45705;55.592;37.460;2023-04-23T05:31:31;17.35;;;8.38;;
58294;SDS011;45705;55.592;37.460;2023-04-23T05:33:57;17.48;;;9.00;;
58294;SDS011;45705;55.592;37.460;2023-04-23T05:36:23;18.15;;;9.10;;
58294;SDS011;45705;55.592;37.460;2023-04-23T05:38:49;24.52;;;9.48;;
58294;SDS011;45705;55.592;37.460;2023-04-23T05:41:14;14.35;;;8.35;;
58294;SDS011;45705;55.592;37.460;2023-04-23T05:43:40;15.07;;;8.77;;
58294;SDS011;45705;55.592;37.460;2023-04-23T05:46:06;18.50;;;8.15;;
58294;SDS011;45705;55.592;37.460;2023-04-23T05:48:32;14.38;;;7.15;;
58294;SDS011;45705;55.592;37.460;2023-04-23T05:50:58;12.80;;;6.32;;
58294;SDS011;45705;55.592;37.460;2023-04-23T05:53:24;13.50;;;6.45;;
58294;SDS011;45705;55.592;37.460;2023-04-23T05:55:50;21.63;;;6.57;;
58294;SDS011;45705;55.592;37.460;2023-04-23T05:58:15;26.05;;;6.78;;
58294;SDS011;45705;55.592;37.460;2023-04-23T06:00:43;26.53;;;6.60;;
58294;SDS011;45705;55.592;37.460;2023-04-23T06:03:09;14.30;;;5.60;;
58294;SDS011;45705;55.592;37.460;2023-04-23T06:05:35;12.60;;;5.28;;
58294;SDS011;45705;55.592;37.460;2023-04-23T06:08:02;11.77;;;4.90;;
58294;SDS011;45705;55.592;37.460;2023-04-23T06:10:28;9.90;;;4.40;;
58294;SDS011;45705;55.592;37.460;2023-04-23T06:12:54;7.75;;;4.70;;
58294;SDS011;45705;55.592;37.460;2023-04-23T06:15:20;10.38;;;4.70;;
58294;SDS011;45705;55.592;37.460;2023-04-23T06:17:46;9.55;;;4.22;;
58294;SDS011;45705;55.592;37.460;2023-04-23T06:20:12;9.38;;;4.35;;
58294;SDS011;45705;55.592;37.460;2023-04-23T06:22:38;8.38;;;4.00;;
58294;SDS011;45705;55.592;37.460;2023-04-23T06:25:04;6.32;;;4.00;;
58294;SDS011;45705;55.592;37.460;2023-04-23T06:27:30;7.03;;;3.50;;
58294;SDS011;45705;55.592;37.460;2023-04-23T06:30:02;6.90;;;4.05;;
58294;SDS011;45705;55.592;37.460;2023-04-23T06:32:29;9.20;;;3.63;;
58294;SDS011;45705;55.592;37.460;2023-04-23T06:34:54;6.18;;;3.88;;
58294;SDS011;45705;55.592;37.460;2023-04-23T06:37:20;10.40;;;4.22;;
58294;SDS011;45705;55.592;37.460;2023-04-23T06:39:46;18.83;;;4.65;;
58294;SDS011;45705;55.592;37.460;2023-04-23T06:42:12;16.48;;;4.35;;
58294;SDS011;45705;55.592;37.460;2023-04-23T06:44:54;14.63;;;4.45;;
58294;SDS011;45705;55.592;37.460;2023-04-23T06:47:19;14.68;;;4.85;;
58294;SDS011;45705;55.592;37.460;2023-04-23T06:49:45;11.45;;;4.50;;
58294;SDS011;45705;55.592;37.460;2023-04-23T06:52:11;9.75;;;4.60;;
58294;SDS011;45705;55.592;37.460;2023-04-23T06:54:36;13.40;;;4.47;;
58294;SDS011;45705;55.592;37.460;2023-04-23T06:57:02;13.15;;;4.45;;
58294;SDS011;45705;55.592;37.460;2023-04-23T06:59:27;11.57;;;4.80;;
58294;SDS011;45705;55.592;37.460;2023-04-23T07:01:55;8.50;;;4.10;;
58294;SDS011;45705;55.592;37.460;2023-04-23T07:04:21;15.32;;;4.38;;
58294;SDS011;45705;55.592;37.460;2023-04-23T07:06:46;14.48;;;4.80;;
58294;SDS011;45705;55.592;37.460;2023-04-23T07:09:12;12.23;;;4.35;;
58294;SDS011;45705;55.592;37.460;2023-04-23T07:11:38;12.60;;;4.50;;
58294;SDS011;45705;55.592;37.460;2023-04-23T07:14:03;10.20;;;4.32;;
58294;SDS011;45705;55.592;37.460;2023-04-23T07:16:30;15.25;;;4.55;;
58294;SDS011;45705;55.592;37.460;2023-04-23T07:18:58;10.20;;;4.77;;
58294;SDS011;45705;55.592;37.460;2023-04-23T07:21:25;13.13;;;4.53;;
58294;SDS011;45705;55.592;37.460;2023-04-23T07:23:56;14.05;;;5.07;;
58294;SDS011;45705;55.592;37.460;2023-04-23T07:26:24;9.38;;;6.07;;
58294;SDS011;45705;55.592;37.460;2023-04-23T07:28:51;11.82;;;5.75;;
58294;SDS011;45705;55.592;37.460;2023-04-23T07:31:17;10.98;;;5.80;;
58294;SDS011;45705;55.592;37.460;2023-04-23T07:33:43;9.43;;;5.10;;
58294;SDS011;45705;55.592;37.460;2023-04-23T07:36:10;5.88;;;4.47;;
58294;SDS011;45705;55.592;37.460;2023-04-23T07:38:35;9.15;;;4.93;;
58294;SDS011;45705;55.592;37.460;2023-04-23T07:43:34;9.02;;;4.68;;
58294;SDS011;45705;55.592;37.460;2023-04-23T07:46:00;11.38;;;6.03;;
58294;SDS011;45705;55.592;37.460;2023-04-23T07:48:26;18.45;;;5.07;;
58294;SDS011;45705;55.592;37.460;2023-04-23T07:50:51;6.90;;;4.82;;
58294;SDS011;45705;55.592;37.460;2023-04-23T07:53:18;8.15;;;4.60;;
58294;SDS011;45705;55.592;37.460;2023-04-23T07:55:44;9.10;;;4.43;;
58294;SDS011;45705;55.592;37.460;2023-04-23T07:58:09;9.88;;;5.13;;
58294;SDS011;45705;55.592;37.460;2023-04-23T08:00:35;8.30;;;3.65;;
58294;SDS011;45705;55.592;37.460;2023-04-23T08:03:01;11.55;;;4.13;;
58294;SDS011;45705;55.592;37.460;2023-04-23T08:05:26;7.75;;;3.80;;
58294;SDS011;45705;55.592;37.460;2023-04-23T08:07:52;5.30;;;3.67;;
58294;SDS011;45705;55.592;37.460;2023-04-23T08:10:18;5.55;;;3.08;;
58294;SDS011;45705;55.592;37.460;2023-04-23T08:12:43;7.63;;;3.38;;
58294;SDS011;45705;55.592;37.460;2023-04-23T08:15:10;7.68;;;3.47;;
58294;SDS011;45705;55.592;37.460;2023-04-23T08:17:39;6.50;;;2.97;;
58294;SDS011;45705;55.592;37.460;2023-04-23T08:20:05;3.65;;;1.92;;
58294;SDS011;45705;55.592;37.460;2023-04-23T08:22:31;3.92;;;1.88;;
58294;SDS011;45705;55.592;37.460;2023-04-23T08:24:57;5.10;;;3.00;;
58294;SDS011;45705;55.592;37.460;2023-04-23T08:27:23;3.78;;;2.80;;
58294;SDS011;45705;55.592;37.460;2023-04-23T08:29:48;9.55;;;2.83;;
58294;SDS011;45705;55.592;37.460;2023-04-23T08:32:14;5.90;;;2.30;;
58294;SDS011;45705;55.592;37.460;2023-04-23T08:34:40;7.07;;;2.47;;
58294;SDS011;45705;55.592;37.460;2023-04-23T08:37:05;5.78;;;2.38;;
58294;SDS011;45705;55.592;37.460;2023-04-23T08:39:32;6.10;;;2.85;;
58294;SDS011;45705;55.592;37.460;2023-04-23T08:42:01;5.03;;;2.50;;
58294;SDS011;45705;55.592;37.460;2023-04-23T08:44:34;6.47;;;2.25;;
58294;SDS011;45705;55.592;37.460;2023-04-23T08:47:03;15.80;;;3.45;;
58294;SDS011;45705;55.592;37.460;2023-04-23T08:49:32;5.35;;;1.90;;
58294;SDS011;45705;55.592;37.460;2023-04-23T08:52:02;4.20;;;1.50;;
58294;SDS011;45705;55.592;37.460;2023-04-23T08:54:41;6.00;;;1.63;;
58294;SDS011;45705;55.592;37.460;2023-04-23T08:57:12;6.13;;;1.70;;
58294;SDS011;45705;55.592;37.460;2023-04-23T08:59:40;3.58;;;1.83;;
58294;SDS011;45705;55.592;37.460;2023-04-23T09:02:07;6.28;;;2.30;;
58294;SDS011;45705;55.592;37.460;2023-04-23T09:04:37;6.68;;;2.50;;
58294;SDS011;45705;55.592;37.460;2023-04-23T09:07:03;6.88;;;2.20;;
58294;SDS011;45705;55.592;37.460;2023-04-23T09:09:35;3.65;;;2.33;;
58294;SDS011;45705;55.592;37.460;2023-04-23T09:12:02;3.58;;;2.42;;
58294;SDS011;45705;55.592;37.460;2023-04-23T09:14:29;6.95;;;3.00;;
58294;SDS011;45705;55.592;37.460;2023-04-23T09:16:55;10.20;;;3.30;;
58294;SDS011;45705;55.592;37.460;2023-04-23T09:19:21;9.55;;;3.58;;
58294;SDS011;45705;55.592;37.460;2023-04-23T09:21:52;4.82;;;2.83;;
58294;SDS011;45705;55.592;37.460;2023-04-23T09:24:22;3.15;;;2.50;;
58294;SDS011;45705;55.592;37.460;2023-04-23T09:26:49;8.80;;;2.67;;
58294;SDS011;45705;55.592;37.460;2023-04-23T09:29:16;15.45;;;2.95;;
58294;SDS011;45705;55.592;37.460;2023-04-23T09:31:50;2.50;;;2.20;;
58294;SDS011;45705;55.592;37.460;2023-04-23T09:34:19;3.85;;;2.70;;
58294;SDS011;45705;55.592;37.460;2023-04-23T09:36:49;5.35;;;2.40;;
58294;SDS011;45705;55.592;37.460;2023-04-23T09:39:17;2.90;;;2.40;;
58294;SDS011;45705;55.592;37.460;2023-04-23T09:41:44;3.70;;;2.55;;
58294;SDS011;45705;55.592;37.460;2023-04-23T09:44:10;4.20;;;2.47;;
58294;SDS011;45705;55.592;37.460;2023-04-23T09:46:39;6.87;;;2.40;;
58294;SDS011;45705;55.592;37.460;2023-04-23T09:49:08;6.53;;;1.92;;
58294;SDS011;45705;55.592;37.460;2023-04-23T09:51:38;3.85;;;2.47;;
58294;SDS011;45705;55.592;37.460;2023-04-23T09:56:52;3.90;;;2.20;;
58294;SDS011;45705;55.592;37.460;2023-04-23T09:59:25;5.45;;;2.50;;
58294;SDS011;45705;55.592;37.460;2023-04-23T10:01:52;3.45;;;2.20;;
58294;SDS011;45705;55.592;37.460;2023-04-23T10:04:19;4.78;;;2.28;;
58294;SDS011;45705;55.592;37.460;2023-04-23T10:06:59;6.00;;;2.40;;
58294;SDS011;45705;55.592;37.460;2023-04-23T10:09:28;3.42;;;2.13;;
58294;SDS011;45705;55.592;37.460;2023-04-23T10:11:54;7.90;;;2.40;;
58294;SDS011;45705;55.592;37.460;2023-04-23T10:14:24;7.45;;;2.30;;
58294;SDS011;45705;55.592;37.460;2023-04-23T10:16:52;5.10;;;2.50;;
58294;SDS011;45705;55.592;37.460;2023-04-23T10:19:22;6.88;;;2.92;;
58294;SDS011;45705;55.592;37.460;2023-04-23T10:21:49;10.25;;;2.75;;
58294;SDS011;45705;55.592;37.460;2023-04-23T10:24:25;5.90;;;2.42;;
58294;SDS011;45705;55.592;37.460;2023-04-23T10:26:57;3.90;;;1.90;;
58294;SDS011;45705;55.592;37.460;2023-04-23T10:29:29;4.05;;;2.17;;
58294;SDS011;45705;55.592;37.460;2023-04-23T10:31:57;4.53;;;2.20;;
58294;SDS011;45705;55.592;37.460;2023-04-23T10:34:24;5.10;;;2.50;;
58294;SDS011;45705;55.592;37.460;2023-04-23T10:36:51;4.30;;;2.35;;
58294;SDS011;45705;55.592;37.460;2023-04-23T10:39:19;8.15;;;2.22;;
58294;SDS011;45705;55.592;37.460;2023-04-23T10:41:46;5.13;;;2.35;;
58294;SDS011;45705;55.592;37.460;2023-04-23T10:44:13;6.68;;;2.10;;
58294;SDS011;45705;55.592;37.460;2023-04-23T10:46:49;3.55;;;2.33;;
58294;SDS011;45705;55.592;37.460;2023-04-23T10:49:17;8.00;;;2.05;;
58294;SDS011;45705;55.592;37.460;2023-04-23T10:51:46;8.10;;;2.25;;
58294;SDS011;45705;55.592;37.460;2023-04-23T10:54:15;5.57;;;2.15;;
58294;SDS011;45705;55.592;37.460;2023-04-23T10:56:41;8.57;;;2.15;;
58294;SDS011;45705;55.592;37.460;2023-04-23T10:59:18;4.25;;;1.90;;
58294;SDS011;45705;55.592;37.460;2023-04-23T11:01:45;4.25;;;2.00;;
58294;SDS011;45705;55.592;37.460;2023-04-23T11:04:19;3.93;;;1.90;;
58294;SDS011;45705;55.592;37.460;2023-04-23T11:11:53;8.70;;;2.17;;
58294;SDS011;45705;55.592;37.460;2023-04-23T11:14:19;24.90;;;2.40;;
58294;SDS011;45705;55.592;37.460;2023-04-23T11:16:46;6.28;;;1.98;;
58294;SDS011;45705;55.592;37.460;2023-04-23T11:19:13;5.22;;;2.28;;
58294;SDS011;45705;55.592;37.460;2023-04-23T11:26:58;7.68;;;2.97;;
58294;SDS011;45705;55.592;37.460;2023-04-23T11:29:25;7.22;;;2.70;;
58294;SDS011;45705;55.592;37.460;2023-04-23T11:31:52;9.70;;;2.70;;
58294;SDS011;45705;55.592;37.460;2023-04-23T11:34:18;5.80;;;3.22;;
58294;SDS011;45705;55.592;37.460;2023-04-23T11:36:45;5.38;;;2.50;;
58294;SDS011;45705;55.592;37.460;2023-04-23T11:39:13;7.63;;;2.45;;
58294;SDS011;45705;55.592;37.460;2023-04-23T11:41:39;5.93;;;2.35;;
58294;SDS011;45705;55.592;37.460;2023-04-23T11:44:06;4.53;;;1.98;;
58294;SDS011;45705;55.592;37.460;2023-04-23T11:46:33;4.65;;;2.15;;
58294;SDS011;45705;55.592;37.460;2023-04-23T11:48:59;8.68;;;3.03;;
58294;SDS011;45705;55.592;37.460;2023-04-23T11:51:25;6.13;;;2.42;;
58294;SDS011;45705;55.592;37.460;2023-04-23T11:53:51;2.85;;;1.90;;
58294;SDS011;45705;55.592;37.460;2023-04-23T11:56:17;6.72;;;1.90;;
58294;SDS011;45705;55.592;37.460;2023-04-23T11:58:44;5.80;;;2.40;;
58294;SDS011;45705;55.592;37.460;2023-04-23T12:01:10;4.93;;;2.05;;
58294;SDS011;45705;55.592;37.460;2023-04-23T12:03:39;5.80;;;2.45;;
58294;SDS011;45705;55.592;37.460;2023-04-23T12:06:05;4.28;;;2.53;;
58294;SDS011;45705;55.592;37.460;2023-04-23T12:08:34;8.48;;;2.10;;
58294;SDS011;45705;55.592;37.460;2023-04-23T12:11:07;3.58;;;2.28;;
58294;SDS011;45705;55.592;37.460;2023-04-23T12:13:32;6.20;;;2.10;;
58294;SDS011;45705;55.592;37.460;2023-04-23T12:16:02;3.80;;;2.03;;
58294;SDS011;45705;55.592;37.460;2023-04-23T12:18:38;12.20;;;2.75;;
58294;SDS011;45705;55.592;37.460;2023-04-23T12:21:07;5.90;;;2.07;;
58294;SDS011;45705;55.592;37.460;2023-04-23T12:23:34;4.63;;;1.97;;
58294;SDS011;45705;55.592;37.460;2023-04-23T12:26:02;22.67;;;2.95;;
58294;SDS011;45705;55.592;37.460;2023-04-23T12:28:28;9.02;;;1.83;;
58294;SDS011;45705;55.592;37.460;2023-04-23T12:30:58;8.05;;;2.20;;
58294;SDS011;45705;55.592;37.460;2023-04-23T12:33:28;3.60;;;2.30;;
58294;SDS011;45705;55.592;37.460;2023-04-23T12:35:55;5.13;;;2.08;;
58294;SDS011;45705;55.592;37.460;2023-04-23T12:38:25;11.18;;;2.58;;
58294;SDS011;45705;55.592;37.460;2023-04-23T12:40:54;4.95;;;2.50;;
58294;SDS011;45705;55.592;37.460;2023-04-23T12:43:24;6.30;;;2.90;;
58294;SDS011;45705;55.592;37.460;2023-04-23T12:45:51;7.00;;;2.40;;
58294;SDS011;45705;55.592;37.460;2023-04-23T12:48:18;3.60;;;2.25;;
58294;SDS011;45705;55.592;37.460;2023-04-23T12:50:45;4.13;;;2.10;;
58294;SDS011;45705;55.592;37.460;2023-04-23T12:53:11;7.43;;;2.10;;
58294;SDS011;45705;55.592;37.460;2023-04-23T12:55:37;4.78;;;2.67;;
58294;SDS011;45705;55.592;37.460;2023-04-23T12:58:07;5.35;;;2.15;;
58294;SDS011;45705;55.592;37.460;2023-04-23T13:00:33;4.43;;;2.35;;
58294;SDS011;45705;55.592;37.460;2023-04-23T13:03:00;8.23;;;2.60;;
58294;SDS011;45705;55.592;37.460;2023-04-23T13:05:26;5.57;;;2.87;;
58294;SDS011;45705;55.592;37.460;2023-04-23T13:07:52;3.20;;;2.17;;
58294;SDS011;45705;55.592;37.460;2023-04-23T13:10:18;3.92;;;2.08;;
58294;SDS011;45705;55.592;37.460;2023-04-23T13:12:44;7.03;;;2.15;;
58294;SDS011;45705;55.592;37.460;2023-04-23T13:15:10;5.20;;;2.03;;
58294;SDS011;45705;55.592;37.460;2023-04-23T13:17:39;5.45;;;2.08;;
58294;SDS011;45705;55.592;37.460;2023-04-23T13:20:04;7.03;;;2.35;;
58294;SDS011;45705;55.592;37.460;2023-04-23T13:22:31;6.28;;;2.83;;
58294;SDS011;45705;55.592;37.460;2023-04-23T13:24:57;6.13;;;2.38;;
58294;SDS011;45705;55.592;37.460;2023-04-23T13:27:24;9.35;;;3.20;;
58294;SDS011;45705;55.592;37.460;2023-04-23T13:29:51;8.00;;;3.13;;
58294;SDS011;45705;55.592;37.460;2023-04-23T13:32:17;8.38;;;2.70;;
58294;SDS011;45705;55.592;37.460;2023-04-23T13:34:42;7.75;;;3.67;;
58294;SDS011;45705;55.592;37.460;2023-04-23T13:37:08;4.80;;;3.15;;
58294;SDS011;45705;55.592;37.460;2023-04-23T13:39:35;8.40;;;3.60;;
58294;SDS011;45705;55.592;37.460;2023-04-23T13:42:01;5.50;;;3.53;;
58294;SDS011;45705;55.592;37.460;2023-04-23T13:44:31;9.35;;;3.42;;
58294;SDS011;45705;55.592;37.460;2023-04-23T13:46:57;8.05;;;3.10;;
58294;SDS011;45705;55.592;37.460;2023-04-23T13:49:23;7.38;;;3.17;;
58294;SDS011;45705;55.592;37.460;2023-04-23T13:51:50;5.10;;;2.92;;
58294;SDS011;45705;55.592;37.460;2023-04-23T13:54:19;6.15;;;2.80;;
58294;SDS011;45705;55.592;37.460;2023-04-23T13:56:45;5.57;;;2.55;;
58294;SDS011;45705;55.592;37.460;2023-04-23T13:59:11;5.30;;;2.47;;
58294;SDS011;45705;55.592;37.460;2023-04-23T14:01:37;5.68;;;2.50;;
58294;SDS011;45705;55.592;37.460;2023-04-23T14:04:03;6.03;;;3.10;;
58294;SDS011;45705;55.592;37.460;2023-04-23T14:06:28;6.65;;;2.72;;
58294;SDS011;45705;55.592;37.460;2023-04-23T14:08:54;5.28;;;2.88;;
58294;SDS011;45705;55.592;37.460;2023-04-23T14:11:20;7.38;;;3.90;;
58294;SDS011;45705;55.592;37.460;2023-04-23T14:13:46;6.05;;;3.38;;
58294;SDS011;45705;55.592;37.460;2023-04-23T14:16:12;6.45;;;3.20;;
58294;SDS011;45705;55.592;37.460;2023-04-23T14:18:38;5.10;;;3.30;;
58294;SDS011;45705;55.592;37.460;2023-04-23T14:21:04;7.30;;;2.88;;
58294;SDS011;45705;55.592;37.460;2023-04-23T14:23:41;6.05;;;3.08;;
58294;SDS011;45705;55.592;37.460;2023-04-23T14:26:09;9.18;;;2.60;;
58294;SDS011;45705;55.592;37.460;2023-04-23T14:31:11;3.65;;;2.28;;
58294;SDS011;45705;55.592;37.460;2023-04-23T14:33:36;8.48;;;2.85;;
58294;SDS011;45705;55.592;37.460;2023-04-23T14:36:02;8.00;;;2.65;;
58294;SDS011;45705;55.592;37.460;2023-04-23T14:38:28;8.57;;;2.97;;
58294;SDS011;45705;55.592;37.460;2023-04-23T14:40:54;13.20;;;3.47;;